Time;durP1;ratioP1;P1;durP2;ratioP2;P2;SDS_P1;SDS_P2;PMS_P1;PMS_P2;Temp;Humidity;BMP_temperature;BMP_pressure;BME280_temperature;BME280_humidity;BME280_pressure;Samples;Min_cycle;Max_cycle;Signal;HPM_P1;HPM_P2
2023/05/11 00:00:38;;;;;;;7.45;4.68;;;9.90;94.20;;;;;;5081911;28;20469;-44
2023/05/11 00:03:05;;;;;;;10.80;5.38;;;9.90;94.30;;;;;;5092550;28;20407;-42
2023/05/11 00:05:32;;;;;;;9.48;5.50;;;9.90;94.30;;;;;;5057600;28;20025;-44
2023/05/11 00:07:59;;;;;;;11.00;4.95;;;10.00;94.40;;;;;;5072471;28;20028;-44
2023/05/11 00:10:24;;;;;;;8.63;5.50;;;10.00;94.40;;;;;;5090464;28;20075;-44
2023/05/11 00:12:52;;;;;;;10.15;5.85;;;9.90;94.20;;;;;;5048675;28;20063;-42
2023/05/11 00:15:18;;;;;;;14.13;5.43;;;9.90;94.30;;;;;;5090470;28;20031;-43
2023/05/11 00:17:45;;;;;;;12.13;4.65;;;9.90;94.20;;;;;;5092611;28;20345;-44
2023/05/11 00:20:12;;;;;;;7.25;4.45;;;9.80;94.30;;;;;;5070059;28;20418;-42
2023/05/11 00:22:41;;;;;;;10.45;4.43;;;9.80;94.20;;;;;;5072526;28;20024;-43
2023/05/11 00:25:09;;;;;;;10.48;4.03;;;9.80;94.30;;;;;;5038658;28;20053;-43
2023/05/11 00:27:35;;;;;;;6.18;4.07;;;9.90;94.30;;;;;;5052439;28;20037;-42
2023/05/11 00:30:01;;;;;;;6.45;4.28;;;9.90;94.40;;;;;;5070539;28;20060;-43
2023/05/11 00:32:28;;;;;;;10.98;3.72;;;9.90;94.40;;;;;;5093720;28;20056;-45
2023/05/11 00:34:55;;;;;;;6.28;4.22;;;9.90;94.30;;;;;;5094157;28;20032;-43
2023/05/11 00:37:21;;;;;;;7.10;4.30;;;9.90;94.20;;;;;;5077324;28;20045;-44
2023/05/11 00:39:48;;;;;;;10.80;4.63;;;9.90;94.10;;;;;;5076181;28;20028;-45
2023/05/11 00:42:16;;;;;;;8.18;4.13;;;9.90;94.10;;;;;;5095838;28;20441;-43
2023/05/11 00:44:44;;;;;;;5.78;3.78;;;9.90;94.20;;;;;;5078480;28;20457;-44
2023/05/11 00:47:10;;;;;;;6.80;4.13;;;9.80;94.00;;;;;;5093597;28;20036;-43
2023/05/11 00:49:39;;;;;;;6.38;2.95;;;9.80;94.00;;;;;;5094937;28;20091;-43
2023/05/11 00:52:07;;;;;;;9.25;3.80;;;9.70;93.90;;;;;;5095554;28;20446;-43
2023/05/11 00:54:34;;;;;;;6.53;3.78;;;9.60;93.90;;;;;;5071713;28;20071;-43
2023/05/11 00:57:02;;;;;;;5.55;3.22;;;9.60;93.80;;;;;;5096096;28;20024;-43
2023/05/11 00:59:29;;;;;;;4.70;3.10;;;9.60;94.00;;;;;;5095797;28;20035;-42
2023/05/11 01:01:59;;;;;;;4.68;2.90;;;9.70;94.10;;;;;;5088968;28;20042;-44
2023/05/11 01:04:26;;;;;;;4.97;3.58;;;9.60;94.10;;;;;;5085696;28;20564;-44
2023/05/11 01:07:11;;;;;;;5.85;2.97;;;9.70;93.90;;;;;;5055333;28;20086;-42
2023/05/11 01:10:02;;;;;;;4.18;2.88;;;9.60;94.00;;;;;;5059477;28;20104;-43
2023/05/11 01:12:57;;;;;;;6.45;3.15;;;9.60;93.90;;;;;;5075111;28;20036;-43
2023/05/11 01:15:35;;;;;;;4.97;3.50;;;9.60;93.90;;;;;;5084538;28;20147;-43
2023/05/11 01:18:31;;;;;;;5.75;3.15;;;9.60;93.90;;;;;;5077930;28;20048;-43
2023/05/11 01:21:04;;;;;;;4.32;2.67;;;9.70;94.00;;;;;;5073295;28;20083;-42
2023/05/11 01:23:59;;;;;;;4.80;3.33;;;9.80;94.10;;;;;;5054818;28;20032;-42
2023/05/11 01:26:59;;;;;;;5.28;3.47;;;9.70;94.00;;;;;;5054386;28;20489;-43
2023/05/11 01:29:47;;;;;;;4.30;3.08;;;9.70;94.00;;;;;;5054023;28;20361;-42
2023/05/11 01:32:30;;;;;;;5.50;3.55;;;9.80;94.00;;;;;;5063371;28;20481;-42
2023/05/11 01:35:16;;;;;;;4.53;2.80;;;9.80;94.10;;;;;;5065985;28;20024;-42
2023/05/11 01:37:50;;;;;;;4.68;2.95;;;9.80;94.10;;;;;;5054068;28;20024;-43
2023/05/11 01:40:21;;;;;;;4.25;2.80;;;9.80;94.00;;;;;;5052121;28;20025;-42
2023/05/11 01:42:49;;;;;;;3.58;2.33;;;9.90;94.10;;;;;;5055669;28;20040;-43
2023/05/11 01:45:18;;;;;;;3.45;2.20;;;9.80;93.90;;;;;;5054803;28;20029;-43
2023/05/11 01:47:49;;;;;;;4.20;2.17;;;9.80;94.00;;;;;;5073227;28;20369;-43
2023/05/11 01:50:18;;;;;;;4.93;2.45;;;9.80;94.10;;;;;;5078648;28;20020;-43
2023/05/11 01:52:49;;;;;;;3.40;2.30;;;9.80;93.90;;;;;;5087925;28;20028;-44
2023/05/11 01:55:20;;;;;;;3.67;2.40;;;9.80;93.90;;;;;;5094561;28;20039;-42
2023/05/11 01:57:50;;;;;;;6.97;2.25;;;9.70;93.70;;;;;;5076811;28;20079;-43
2023/05/11 02:00:17;;;;;;;6.90;2.55;;;9.60;93.70;;;;;;5060355;28;20024;-43
2023/05/11 02:02:46;;;;;;;10.30;2.42;;;9.60;93.80;;;;;;5075409;28;20042;-43
2023/05/11 02:05:20;;;;;;;4.82;2.42;;;9.60;94.00;;;;;;5094723;28;20096;-44
2023/05/11 02:07:48;;;;;;;4.07;2.90;;;9.60;93.90;;;;;;5092618;28;20323;-43
2023/05/11 02:10:19;;;;;;;5.93;2.90;;;9.60;94.10;;;;;;5057733;28;20045;-44
2023/05/11 02:12:51;;;;;;;4.90;3.38;;;9.60;94.00;;;;;;5064694;28;20021;-42
2023/05/11 02:15:20;;;;;;;7.75;3.78;;;9.50;94.00;;;;;;5062433;28;20464;-43
2023/05/11 02:17:53;;;;;;;5.57;2.97;;;9.60;94.10;;;;;;5088988;28;20035;-42
2023/05/11 02:20:20;;;;;;;14.27;3.97;;;9.50;93.90;;;;;;5053915;28;20029;-44
2023/05/11 02:22:48;;;;;;;6.07;4.18;;;9.50;93.80;;;;;;5058612;28;20119;-43
2023/05/11 02:25:19;;;;;;;6.10;4.40;;;9.60;94.10;;;;;;5094095;28;20016;-43
2023/05/11 02:27:46;;;;;;;6.63;4.05;;;9.60;94.00;;;;;;5067169;28;20090;-42
2023/05/11 02:30:13;;;;;;;5.68;4.07;;;9.50;93.90;;;;;;5062950;28;20679;-43
2023/05/11 02:32:49;;;;;;;5.78;3.78;;;9.50;94.00;;;;;;5053606;28;20029;-42
2023/05/11 02:35:22;;;;;;;6.40;3.65;;;9.50;94.10;;;;;;5053681;28;20115;-43
2023/05/11 02:37:49;;;;;;;7.32;4.90;;;9.60;94.10;;;;;;5072748;28;20043;-42
2023/05/11 02:40:27;;;;;;;12.00;6.55;;;9.60;94.00;;;;;;5085909;28;20080;-44
2023/05/11 02:43:00;;;;;;;7.90;4.90;;;9.50;93.90;;;;;;5093857;28;20020;-43
2023/05/11 02:45:31;;;;;;;10.02;5.20;;;9.50;93.90;;;;;;5087728;28;20029;-43
2023/05/11 02:48:00;;;;;;;11.75;6.32;;;9.50;94.00;;;;;;5067706;28;20029;-43
2023/05/11 02:50:29;;;;;;;10.10;4.90;;;9.60;94.00;;;;;;5053145;28;20028;-43
2023/05/11 02:53:02;;;;;;;6.88;3.60;;;9.50;93.90;;;;;;5069726;28;20062;-43
2023/05/11 02:55:33;;;;;;;9.55;3.70;;;9.50;93.90;;;;;;5091109;28;20028;-43
2023/05/11 02:58:00;;;;;;;14.90;3.45;;;9.50;93.90;;;;;;5053205;28;20029;-43
2023/05/11 03:00:30;;;;;;;5.65;2.88;;;9.40;93.80;;;;;;5062139;28;20115;-43
2023/05/11 03:02:58;;;;;;;5.32;2.65;;;9.40;93.70;;;;;;5093062;28;20110;-43
2023/05/11 03:05:24;;;;;;;7.05;3.30;;;9.30;93.70;;;;;;5090255;28;20556;-42
2023/05/11 03:07:56;;;;;;;13.00;4.07;;;9.40;93.90;;;;;;5087816;28;20123;-43
2023/05/11 03:10:25;;;;;;;9.48;3.20;;;9.40;93.80;;;;;;5058594;28;20052;-44
2023/05/11 03:12:53;;;;;;;16.38;4.88;;;9.40;93.90;;;;;;5093045;28;20024;-43
2023/05/11 03:15:24;;;;;;;6.20;3.10;;;9.40;93.70;;;;;;5063168;28;20111;-44
2023/05/11 03:17:54;;;;;;;8.00;3.80;;;9.30;93.80;;;;;;5075164;28;20453;-43
2023/05/11 03:20:23;;;;;;;7.38;3.35;;;9.30;93.80;;;;;;5068286;28;20466;-45
2023/05/11 03:22:50;;;;;;;6.25;3.67;;;9.30;93.70;;;;;;5052595;28;20020;-44
2023/05/11 03:25:17;;;;;;;9.02;7.13;;;9.30;93.90;;;;;;5058084;28;20193;-44
2023/05/11 03:27:45;;;;;;;9.02;7.93;;;9.30;93.80;;;;;;5055164;28;20024;-43
2023/05/11 03:30:14;;;;;;;7.53;5.80;;;9.30;93.90;;;;;;5075805;28;20047;-43
2023/05/11 03:32:41;;;;;;;6.18;5.28;;;9.20;93.80;;;;;;5079102;28;20071;-43
2023/05/11 03:35:08;;;;;;;5.68;5.00;;;9.10;93.50;;;;;;5089449;28;20043;-43
2023/05/11 03:37:39;;;;;;;9.73;8.20;;;9.10;93.70;;;;;;5090819;28;20027;-44
2023/05/11 03:40:07;;;;;;;7.50;5.90;;;9.10;93.90;;;;;;5067965;28;20084;-42
2023/05/11 03:42:36;;;;;;;9.82;6.57;;;9.10;93.70;;;;;;5035198;28;20029;-43
2023/05/11 03:45:06;;;;;;;11.13;7.90;;;9.10;93.90;;;;;;5068873;28;20118;-43
2023/05/11 03:47:37;;;;;;;4.60;3.25;;;9.10;93.80;;;;;;5091519;28;20435;-43
2023/05/11 03:50:08;;;;;;;6.25;3.80;;;9.10;93.60;;;;;;5075463;28;20036;-44
2023/05/11 03:52:36;;;;;;;7.30;5.82;;;9.10;93.50;;;;;;5046695;28;20116;-44
2023/05/11 03:55:06;;;;;;;8.60;6.15;;;9.10;93.70;;;;;;5062875;28;20040;-43
2023/05/11 03:57:33;;;;;;;10.35;4.93;;;9.10;93.80;;;;;;5072388;28;20043;-44
2023/05/11 04:00:01;;;;;;;7.72;4.03;;;9.20;94.00;;;;;;5033899;28;20025;-43
2023/05/11 04:02:29;;;;;;;5.53;3.58;;;9.20;93.90;;;;;;5073383;28;20052;-46
2023/05/11 04:04:56;;;;;;;6.97;3.90;;;9.20;93.80;;;;;;5093262;28;20012;-43
2023/05/11 04:07:24;;;;;;;10.00;5.88;;;9.10;93.80;;;;;;5076959;28;20086;-43
2023/05/11 04:09:50;;;;;;;26.13;6.80;;;9.20;93.80;;;;;;5070492;28;20033;-43
2023/05/11 04:12:17;;;;;;;19.00;8.38;;;9.20;93.80;;;;;;5075656;28;20351;-43
2023/05/11 04:14:43;;;;;;;9.98;5.15;;;9.20;93.80;;;;;;5058129;28;20040;-46
2023/05/11 04:17:10;;;;;;;10.18;4.60;;;9.20;93.60;;;;;;5089381;28;20349;-43
2023/05/11 04:19:37;;;;;;;10.27;5.43;;;9.10;93.70;;;;;;5080188;28;20048;-43
2023/05/11 04:22:03;;;;;;;6.53;3.55;;;9.20;93.70;;;;;;5066709;28;20021;-44
2023/05/11 04:24:31;;;;;;;21.83;5.05;;;9.20;93.70;;;;;;5070925;28;20025;-42
2023/05/11 04:27:00;;;;;;;20.52;5.25;;;9.20;93.50;;;;;;5078374;28;20028;-44
2023/05/11 04:29:27;;;;;;;8.65;4.15;;;9.20;93.60;;;;;;5068817;28;20033;-46
2023/05/11 04:31:54;;;;;;;11.10;5.95;;;9.20;93.70;;;;;;5084572;28;20107;-43
2023/05/11 04:34:21;;;;;;;10.63;6.15;;;9.20;93.70;;;;;;5092272;28;20034;-42
2023/05/11 04:36:50;;;;;;;10.45;5.03;;;9.30;93.80;;;;;;5071313;28;20358;-43
2023/05/11 04:39:17;;;;;;;10.27;4.60;;;9.40;93.90;;;;;;5062403;28;20060;-42
2023/05/11 04:41:45;;;;;;;14.02;6.35;;;9.40;94.00;;;;;;5075851;28;20044;-46
2023/05/11 04:44:12;;;;;;;14.27;5.20;;;9.40;94.00;;;;;;5087198;28;20036;-43
2023/05/11 04:46:37;;;;;;;15.27;5.03;;;9.50;94.00;;;;;;5093702;28;20028;-46
2023/05/11 04:49:07;;;;;;;16.27;5.13;;;9.50;94.00;;;;;;5094991;28;20031;-43
2023/05/11 04:51:36;;;;;;;25.90;6.50;;;9.50;94.00;;;;;;5080824;28;20029;-43
2023/05/11 04:54:01;;;;;;;6.82;3.80;;;9.50;94.00;;;;;;5085564;28;20040;-43
2023/05/11 04:56:27;;;;;;;6.53;3.97;;;9.50;94.00;;;;;;5055625;28;20033;-43
2023/05/11 04:58:54;;;;;;;8.75;5.03;;;9.60;94.10;;;;;;5081446;28;20102;-43
2023/05/11 05:01:21;;;;;;;8.27;5.32;;;9.60;94.20;;;;;;5086313;28;20357;-43
2023/05/11 05:03:51;;;;;;;6.90;4.75;;;9.60;94.10;;;;;;5095759;28;20380;-43
2023/05/11 05:06:18;;;;;;;8.63;4.47;;;9.70;94.00;;;;;;5077009;28;20081;-45
2023/05/11 05:08:43;;;;;;;8.45;4.43;;;9.70;93.90;;;;;;5088110;28;20032;-43
2023/05/11 05:11:10;;;;;;;4.72;3.00;;;9.70;93.80;;;;;;5062687;28;20411;-43
2023/05/11 05:13:37;;;;;;;10.57;4.50;;;9.60;93.90;;;;;;5057160;28;20059;-46
2023/05/11 05:16:03;;;;;;;21.63;4.72;;;9.70;93.80;;;;;;5072841;28;20024;-43
2023/05/11 05:18:30;;;;;;;19.30;4.25;;;9.70;93.80;;;;;;5078626;28;20029;-44
2023/05/11 05:20:57;;;;;;;5.85;3.47;;;9.60;93.70;;;;;;5054961;28;20453;-46
2023/05/11 05:23:24;;;;;;;6.45;4.60;;;9.70;93.90;;;;;;5056205;28;20059;-43
2023/05/11 05:25:51;;;;;;;6.60;4.18;;;9.70;94.00;;;;;;5055828;28;20086;-46
2023/05/11 05:28:18;;;;;;;8.23;4.85;;;9.80;94.00;;;;;;5084438;28;20028;-43
2023/05/11 05:30:45;;;;;;;5.05;3.38;;;9.80;94.00;;;;;;5059967;28;20060;-43
2023/05/11 05:33:11;;;;;;;4.55;2.83;;;9.80;94.00;;;;;;5070593;28;20081;-42
2023/05/11 05:35:42;;;;;;;12.50;3.80;;;9.90;94.10;;;;;;5073740;28;20338;-44
2023/05/11 05:38:09;;;;;;;4.93;2.80;;;9.90;93.90;;;;;;5070609;28;20032;-48
2023/05/11 05:40:38;;;;;;;6.72;3.20;;;9.90;93.90;;;;;;5074344;28;20020;-45
2023/05/11 05:43:05;;;;;;;5.72;3.10;;;9.90;93.80;;;;;;5063083;28;20025;-43
2023/05/11 05:45:35;;;;;;;6.10;3.75;;;10.00;93.80;;;;;;5072936;28;20035;-45
2023/05/11 05:48:04;;;;;;;;;;;10.00;93.90;;;;;;5057241;28;20028;-45
2023/05/11 05:50:34;;;;;;;5.03;2.55;;;10.00;93.70;;;;;;5081491;28;20368;-44
2023/05/11 05:53:01;;;;;;;8.80;4.07;;;10.00;93.70;;;;;;5082387;28;20067;-45
2023/05/11 05:55:30;;;;;;;6.00;3.40;;;10.00;93.60;;;;;;5078841;28;20617;-44
2023/05/11 05:57:57;;;;;;;4.80;2.88;;;10.10;93.70;;;;;;5054888;28;20025;-44
2023/05/11 06:00:24;;;;;;;5.25;2.70;;;10.10;93.70;;;;;;5073444;28;20100;-43
2023/05/11 06:02:51;;;;;;;4.25;3.10;;;10.20;93.60;;;;;;5071090;28;20020;-43
2023/05/11 06:05:21;;;;;;;4.55;2.90;;;10.20;93.60;;;;;;5073241;28;20039;-42
2023/05/11 06:07:48;;;;;;;4.05;2.70;;;10.20;93.40;;;;;;5075918;28;20074;-45
2023/05/11 06:10:14;;;;;;;3.90;2.63;;;10.20;93.50;;;;;;5073588;28;20086;-44
2023/05/11 06:12:40;;;;;;;3.40;2.20;;;10.20;93.40;;;;;;5071436;28;20103;-44
2023/05/11 06:15:07;;;;;;;3.13;2.10;;;10.30;93.40;;;;;;5051866;28;20060;-44
2023/05/11 06:17:34;;;;;;;3.70;2.20;;;10.30;93.40;;;;;;5072777;28;20079;-43
2023/05/11 06:20:01;;;;;;;2.78;1.50;;;10.40;93.40;;;;;;5054231;28;20035;-44
2023/05/11 06:22:28;;;;;;;2.88;1.60;;;10.40;93.20;;;;;;5054403;28;20027;-44
2023/05/11 06:24:54;;;;;;;3.85;2.33;;;10.40;92.90;;;;;;5070845;28;20020;-43
2023/05/11 06:27:21;;;;;;;3.33;2.10;;;10.40;92.90;;;;;;5072108;28;20025;-47
2023/05/11 06:29:48;;;;;;;4.13;2.67;;;10.40;93.10;;;;;;5073677;28;20315;-45
2023/05/11 06:32:15;;;;;;;4.65;3.28;;;10.50;93.10;;;;;;5048373;28;20393;-43
2023/05/11 06:34:42;;;;;;;4.18;3.20;;;10.50;93.00;;;;;;5067307;28;20070;-43
2023/05/11 06:37:09;;;;;;;3.97;3.00;;;10.50;93.00;;;;;;5072477;28;20104;-43
2023/05/11 06:39:36;;;;;;;6.15;2.70;;;10.60;92.90;;;;;;5052289;28;20133;-45
2023/05/11 06:42:03;;;;;;;3.92;2.40;;;10.70;93.00;;;;;;5068693;28;20036;-43
2023/05/11 06:44:29;;;;;;;4.32;2.53;;;10.80;93.00;;;;;;5070047;28;20032;-43
2023/05/11 06:46:56;;;;;;;5.20;2.30;;;10.80;92.70;;;;;;5069890;28;20028;-44
2023/05/11 06:49:25;;;;;;;4.63;2.83;;;10.90;92.70;;;;;;5070168;28;20028;-43
2023/05/11 06:51:53;;;;;;;5.88;3.63;;;10.90;92.50;;;;;;5068561;28;20060;-43
2023/05/11 06:54:21;;;;;;;4.18;2.67;;;10.90;92.50;;;;;;5069890;28;20040;-43
2023/05/11 06:56:48;;;;;;;3.97;2.85;;;10.80;92.30;;;;;;5069378;28;20028;-42
2023/05/11 06:59:14;;;;;;;4.10;3.20;;;10.90;92.60;;;;;;5069969;28;20074;-43
2023/05/11 07:01:42;;;;;;;3.67;3.05;;;10.90;92.80;;;;;;5069924;28;20033;-43
2023/05/11 07:04:10;;;;;;;5.57;3.97;;;10.90;92.50;;;;;;5062883;28;20358;-43
2023/05/11 07:06:37;;;;;;;4.88;3.97;;;10.90;92.20;;;;;;5071452;28;20039;-43
2023/05/11 07:09:04;;;;;;;4.47;4.00;;;10.90;92.50;;;;;;5071217;28;20028;-43
2023/05/11 07:11:31;;;;;;;4.78;3.58;;;11.00;92.30;;;;;;5068070;28;20375;-43
2023/05/11 07:13:57;;;;;;;4.75;3.63;;;11.10;92.20;;;;;;5074259;28;20025;-44
2023/05/11 07:16:24;;;;;;;4.93;3.00;;;11.10;92.10;;;;;;5068027;28;20029;-45
2023/05/11 07:18:51;;;;;;;4.07;2.72;;;11.20;92.00;;;;;;5069491;28;20093;-43
2023/05/11 07:21:18;;;;;;;3.90;2.80;;;11.20;91.80;;;;;;5071056;28;20361;-43
2023/05/11 07:23:45;;;;;;;7.10;3.75;;;11.20;91.80;;;;;;5072014;28;20016;-44
2023/05/11 07:26:11;;;;;;;7.53;6.82;;;11.30;91.60;;;;;;5051893;28;20040;-43
2023/05/11 07:28:38;;;;;;;29.70;21.52;;;11.30;91.40;;;;;;5071023;28;20032;-43
2023/05/11 07:31:06;;;;;;;20.20;7.72;;;11.30;91.10;;;;;;5068961;28;20033;-45
2023/05/11 07:33:34;;;;;;;9.63;4.13;;;11.30;91.00;;;;;;5056010;28;20113;-43
2023/05/11 07:36:01;;;;;;;6.35;2.05;;;11.40;91.30;;;;;;5045944;28;20068;-44
2023/05/11 07:38:28;;;;;;;4.07;2.40;;;11.40;91.10;;;;;;5072851;28;20123;-44
2023/05/11 07:40:55;;;;;;;2.88;1.58;;;11.40;91.00;;;;;;5076740;28;20494;-43
2023/05/11 07:43:21;;;;;;;3.58;1.27;;;11.40;90.60;;;;;;5073958;28;20057;-44
2023/05/11 07:45:51;;;;;;;4.65;4.00;;;11.30;90.60;;;;;;5068870;28;20065;-43
2023/05/11 07:48:17;;;;;;;2.97;2.03;;;11.40;90.10;;;;;;5075729;28;20051;-43
2023/05/11 07:50:44;;;;;;;3.17;2.00;;;11.40;90.70;;;;;;5067724;28;20048;-43
2023/05/11 07:53:11;;;;;;;6.35;5.75;;;11.50;90.70;;;;;;5074206;28;20094;-43
2023/05/11 07:55:38;;;;;;;3.08;1.92;;;11.60;90.80;;;;;;5046782;28;20118;-44
2023/05/11 07:58:05;;;;;;;4.18;1.70;;;11.60;90.80;;;;;;5074008;28;20116;-43
2023/05/11 08:00:32;;;;;;;2.42;1.42;;;11.50;90.40;;;;;;5073461;28;20031;-44
2023/05/11 08:03:00;;;;;;;2.55;1.60;;;11.50;90.30;;;;;;5075701;28;20438;-44
2023/05/11 08:05:26;;;;;;;2.35;1.38;;;11.50;90.40;;;;;;5074240;28;20017;-44
2023/05/11 08:07:55;;;;;;;6.13;4.00;;;11.50;90.90;;;;;;5056066;28;20315;-45
2023/05/11 08:10:20;;;;;;;3.58;2.33;;;11.50;90.20;;;;;;5075463;28;20044;-45
2023/05/11 08:12:47;;;;;;;1.27;0.77;;;11.60;90.80;;;;;;5075133;28;20028;-44
2023/05/11 08:15:14;;;;;;;1.30;0.90;;;11.50;89.90;;;;;;5075570;28;20608;-44
2023/05/11 08:17:42;;;;;;;1.02;0.82;;;11.60;90.30;;;;;;5071926;28;20127;-43
2023/05/11 08:20:09;;;;;;;4.70;1.73;;;11.60;90.10;;;;;;5074885;28;20473;-45
2023/05/11 08:22:35;;;;;;;4.20;1.02;;;11.60;90.00;;;;;;5074777;28;20453;-44
2023/05/11 08:25:03;;;;;;;4.18;1.42;;;11.70;89.80;;;;;;5056817;28;20381;-45
2023/05/11 08:27:30;;;;;;;2.80;0.82;;;11.80;90.00;;;;;;5074353;28;20115;-44
2023/05/11 08:29:57;;;;;;;2.30;0.70;;;11.80;89.70;;;;;;5075675;28;20055;-45
2023/05/11 08:32:24;;;;;;;0.93;0.70;;;11.90;89.70;;;;;;5056894;28;20095;-44
2023/05/11 08:34:51;;;;;;;2.40;0.60;;;11.90;89.30;;;;;;5057597;28;20032;-46
2023/05/11 08:37:18;;;;;;;1.85;0.85;;;12.00;89.40;;;;;;5067621;28;20449;-45
2023/05/11 08:39:48;;;;;;;1.42;0.90;;;12.20;89.10;;;;;;5065755;28;20063;-45
2023/05/11 08:42:16;;;;;;;2.10;1.40;;;12.20;88.90;;;;;;5057502;28;20086;-46
2023/05/11 08:44:44;;;;;;;3.88;1.92;;;12.20;88.70;;;;;;5077119;28;20024;-44
2023/05/11 08:47:11;;;;;;;2.67;1.88;;;12.10;89.00;;;;;;5072258;28;20021;-45
2023/05/11 08:49:39;;;;;;;2.28;1.30;;;12.10;89.00;;;;;;5070730;28;20036;-45
2023/05/11 08:52:05;;;;;;;2.30;1.65;;;12.20;88.80;;;;;;5076756;28;20016;-46
2023/05/11 08:54:32;;;;;;;2.75;1.73;;;12.10;88.80;;;;;;5074202;28;20119;-45
2023/05/11 08:57:00;;;;;;;2.97;1.80;;;12.10;89.30;;;;;;5079510;28;20016;-45
2023/05/11 08:59:29;;;;;;;1.58;1.00;;;12.30;89.60;;;;;;5088396;28;20037;-46
2023/05/11 09:01:59;;;;;;;2.10;1.40;;;12.30;88.60;;;;;;5059143;28;20461;-46
2023/05/11 09:04:27;;;;;;;5.60;2.78;;;12.30;88.50;;;;;;5056172;28;20279;-47
2023/05/11 09:06:55;;;;;;;3.97;1.30;;;12.50;88.60;;;;;;5064383;28;20024;-45
2023/05/11 09:09:24;;;;;;;2.40;0.93;;;12.40;87.90;;;;;;5081100;28;20024;-44
2023/05/11 09:11:51;;;;;;;1.75;1.00;;;12.40;87.30;;;;;;5080228;28;20109;-44
2023/05/11 09:14:19;;;;;;;2.22;1.10;;;12.60;87.90;;;;;;5073416;28;20029;-46
2023/05/11 09:16:45;;;;;;;1.77;1.20;;;12.80;87.90;;;;;;5092378;28;20032;-48
2023/05/11 09:19:15;;;;;;;1.65;1.00;;;12.70;86.70;;;;;;5074393;28;20048;-47
2023/05/11 09:21:45;;;;;;;;;;;12.70;87.00;;;;;;5057812;28;20062;-47
2023/05/11 09:24:14;;;;;;;2.03;1.10;;;12.90;87.10;;;;;;5067766;28;19995;-46
2023/05/11 09:26:41;;;;;;;;;;;12.90;86.30;;;;;;5078317;28;20071;-46
2023/05/11 09:29:08;;;;;;;1.50;0.90;;;12.90;85.30;;;;;;5073271;28;19979;-44
2023/05/11 09:31:39;;;;;;;1.80;1.17;;;12.90;85.60;;;;;;5072411;28;20033;-46
2023/05/11 09:34:15;;;;;;;1.83;1.02;;;12.80;86.70;;;;;;5074285;28;20436;-48
2023/05/11 09:36:47;;;;;;;4.80;1.25;;;12.90;86.30;;;;;;5073324;28;20032;-48
2023/05/11 09:39:18;;;;;;;3.63;1.25;;;13.00;85.90;;;;;;5077343;28;20418;-45
2023/05/11 09:41:44;;;;;;;3.55;1.30;;;13.10;85.80;;;;;;5075609;28;20115;-47
2023/05/11 09:44:15;;;;;;;1.27;1.00;;;13.20;85.40;;;;;;5091858;28;20099;-47
2023/05/11 09:46:45;;;;;;;1.70;1.00;;;13.30;85.40;;;;;;5084409;28;20074;-46
2023/05/11 09:49:12;;;;;;;1.65;0.90;;;13.30;85.00;;;;;;5077185;28;20029;-45
2023/05/11 09:51:39;;;;;;;1.00;0.80;;;13.20;84.50;;;;;;5069016;28;20056;-45
2023/05/11 09:54:19;;;;;;;2.03;1.00;;;13.20;84.50;;;;;;5070174;28;20025;-45
2023/05/11 09:57:00;;;;;;;3.72;1.25;;;13.20;84.90;;;;;;5077084;28;20438;-47
2023/05/11 09:59:38;;;;;;;4.57;1.35;;;13.10;84.70;;;;;;5066976;28;20583;-45
2023/05/11 10:02:24;;;;;;;6.43;1.50;;;13.00;85.40;;;;;;5066690;28;20020;-45
2023/05/11 10:04:53;;;;;;;1.65;1.15;;;13.00;85.40;;;;;;5070912;28;20028;-48
2023/05/11 10:07:55;;;;;;;2.28;1.70;;;12.90;85.90;;;;;;5058753;28;20059;-47
2023/05/11 10:10:22;;;;;;;4.80;1.40;;;12.80;86.40;;;;;;5069885;28;20454;-47
2023/05/11 10:12:50;;;;;;;3.00;1.33;;;12.80;86.20;;;;;;5073060;28;20472;-45
2023/05/11 10:15:24;;;;;;;1.92;1.10;;;12.80;87.00;;;;;;5071200;28;20028;-45
2023/05/11 10:17:52;;;;;;;2.03;1.63;;;12.80;86.80;;;;;;5086987;28;20024;-46
2023/05/11 10:20:19;;;;;;;1.75;1.20;;;12.90;86.40;;;;;;5058113;28;20028;-46
2023/05/11 10:22:46;;;;;;;1.80;1.20;;;12.90;86.10;;;;;;5053157;28;20514;-46
2023/05/11 10:25:16;;;;;;;1.88;1.25;;;12.80;85.80;;;;;;5053313;28;20036;-46
2023/05/11 10:27:44;;;;;;;5.65;2.03;;;12.70;86.10;;;;;;5053325;28;20037;-47
2023/05/11 10:30:10;;;;;;;3.90;2.40;;;12.90;86.80;;;;;;5052841;28;20040;-45
2023/05/11 10:32:39;;;;;;;3.85;1.70;;;13.10;86.40;;;;;;5067890;28;20032;-46
2023/05/11 10:35:07;;;;;;;2.38;1.80;;;13.20;86.30;;;;;;5071520;28;20036;-46
2023/05/11 10:37:35;;;;;;;2.83;1.90;;;13.40;86.30;;;;;;5069824;28;20033;-46
2023/05/11 10:40:04;;;;;;;1.92;1.40;;;13.30;85.60;;;;;;5056887;28;20073;-46
2023/05/11 10:43:13;;;;;;;2.05;1.45;;;13.10;84.80;;;;;;5091111;28;20028;-46
2023/05/11 10:46:34;;;;;;;2.45;1.80;;;13.20;85.80;;;;;;5070709;28;20035;-44
2023/05/11 10:49:30;;;;;;;2.55;1.80;;;13.30;85.70;;;;;;5069635;28;20473;-45
2023/05/11 10:52:17;;;;;;;2.20;1.70;;;13.30;85.30;;;;;;5068307;28;20036;-46
2023/05/11 10:54:52;;;;;;;3.17;2.40;;;13.40;85.10;;;;;;5089053;28;20036;-48
2023/05/11 10:57:42;;;;;;;2.40;1.95;;;13.80;85.70;;;;;;5081626;28;20032;-45
2023/05/11 11:00:42;;;;;;;3.30;2.53;;;13.80;84.10;;;;;;5070447;28;20017;-46
2023/05/11 11:03:13;;;;;;;2.97;2.38;;;13.70;83.70;;;;;;5085508;28;20032;-45
2023/05/11 11:05:43;;;;;;;4.57;3.30;;;13.60;84.00;;;;;;5074222;28;20110;-47
2023/05/11 11:08:11;;;;;;;3.95;3.55;;;13.40;84.40;;;;;;5066741;28;20483;-46
2023/05/11 11:10:36;;;;;;;3.80;3.40;;;13.40;84.90;;;;;;5072153;28;20056;-47
2023/05/11 11:13:07;;;;;;;4.55;3.15;;;13.50;85.50;;;;;;5073445;28;20036;-46
2023/05/11 11:16:09;;;;;;;4.82;3.40;;;13.60;85.20;;;;;;5072585;28;20035;-46
2023/05/11 11:18:36;;;;;;;3.55;2.88;;;13.60;84.20;;;;;;5000426;28;20508;-47
2023/05/11 11:21:03;;;;;;;4.55;2.90;;;13.70;84.50;;;;;;5068782;28;20750;-46
2023/05/11 11:23:50;;;;;;;3.28;2.40;;;13.70;84.70;;;;;;5069967;28;20028;-46
2023/05/11 11:26:49;;;;;;;5.47;2.33;;;13.90;84.60;;;;;;5072105;28;20025;-47
2023/05/11 11:29:16;;;;;;;3.85;2.33;;;13.80;83.00;;;;;;5054478;28;20029;-47
2023/05/11 11:31:43;;;;;;;4.60;3.72;;;13.80;84.20;;;;;;5045422;28;20072;-45
2023/05/11 11:34:27;;;;;;;4.65;4.03;;;14.00;84.10;;;;;;5056507;28;20024;-46
2023/05/11 11:37:12;;;;;;;7.03;5.53;;;14.20;83.30;;;;;;5071836;28;20032;-47
2023/05/11 11:39:45;;;;;;;6.63;5.95;;;14.40;83.10;;;;;;5083044;28;20463;-46
2023/05/11 11:42:13;;;;;;;6.80;6.10;;;14.70;83.00;;;;;;5088210;28;20024;-49
2023/05/11 11:44:41;;;;;;;6.80;6.10;;;14.90;81.80;;;;;;5076023;28;20097;-46
2023/05/11 11:47:25;;;;;;;6.00;5.40;;;14.90;80.50;;;;;;5079418;28;20017;-46
2023/05/11 11:49:53;;;;;;;6.38;5.10;;;15.00;81.10;;;;;;5075266;28;20047;-50
2023/05/11 11:52:37;;;;;;;5.80;5.07;;;14.90;81.00;;;;;;5078431;28;20027;-48
2023/05/11 11:55:05;;;;;;;4.18;3.13;;;15.20;82.40;;;;;;5067635;28;20461;-46
2023/05/11 11:57:50;;;;;;;3.20;2.33;;;15.20;80.80;;;;;;5090604;28;20035;-48
2023/05/11 12:00:20;;;;;;;3.38;1.83;;;15.50;81.20;;;;;;5087721;28;20039;-49
2023/05/11 12:02:47;;;;;;;2.90;1.70;;;15.60;79.60;;;;;;5057491;28;20025;-46
2023/05/11 12:05:18;;;;;;;3.03;2.30;;;15.80;78.30;;;;;;5087909;28;20115;-46
2023/05/11 12:07:48;;;;;;;3.78;2.28;;;15.70;79.00;;;;;;5090138;28;20036;-48
2023/05/11 12:10:17;;;;;;;3.15;2.45;;;15.70;78.40;;;;;;5058070;28;20459;-48
2023/05/11 12:12:49;;;;;;;4.15;2.72;;;15.40;78.50;;;;;;5068082;28;20032;-47
2023/05/11 12:15:28;;;;;;;3.78;3.20;;;15.40;79.00;;;;;;5085405;28;20067;-50
2023/05/11 12:17:55;;;;;;;3.95;2.88;;;15.40;79.10;;;;;;5043705;28;20346;-50
2023/05/11 12:20:22;;;;;;;3.78;3.10;;;15.50;79.50;;;;;;5081956;28;20028;-46
2023/05/11 12:22:50;;;;;;;4.15;3.20;;;15.30;78.90;;;;;;5070231;28;20024;-47
2023/05/11 12:25:17;;;;;;;5.00;3.05;;;15.40;79.30;;;;;;5063554;28;20020;-46
2023/05/11 12:27:48;;;;;;;4.88;2.92;;;15.40;80.30;;;;;;5079262;28;20056;-46
2023/05/11 12:30:34;;;;;;;4.35;3.95;;;15.50;79.60;;;;;;5088490;28;20653;-46
2023/05/11 12:33:03;;;;;;;5.70;4.40;;;15.60;79.30;;;;;;5056547;28;20433;-48
2023/05/11 12:35:33;;;;;;;4.85;4.35;;;15.70;79.50;;;;;;5069388;28;20539;-46
2023/05/11 12:38:01;;;;;;;5.18;4.65;;;15.70;79.90;;;;;;5079220;28;20043;-46
2023/05/11 12:40:29;;;;;;;5.38;4.88;;;15.50;78.00;;;;;;5075019;28;20024;-46
2023/05/11 12:42:58;;;;;;;6.78;5.72;;;15.50;80.10;;;;;;5061826;28;20033;-47
2023/05/11 12:45:26;;;;;;;7.88;6.35;;;15.40;81.00;;;;;;5068425;28;20032;-49
2023/05/11 12:47:54;;;;;;;8.43;6.45;;;15.20;80.10;;;;;;5075165;28;20094;-46
2023/05/11 12:50:21;;;;;;;8.65;7.50;;;15.20;81.50;;;;;;5080787;28;20039;-46
2023/05/11 12:52:49;;;;;;;9.88;7.20;;;15.00;81.10;;;;;;5071374;28;20039;-46
2023/05/11 12:55:27;;;;;;;8.43;7.63;;;14.90;81.10;;;;;;5071924;28;20477;-46
2023/05/11 12:58:11;;;;;;;7.85;7.05;;;14.80;81.60;;;;;;5069771;28;20128;-48
2023/05/11 13:00:58;;;;;;;9.10;8.20;;;14.90;82.40;;;;;;5055457;28;20040;-47
2023/05/11 13:03:27;;;;;;;8.77;7.80;;;14.70;81.80;;;;;;5092590;28;20028;-49
2023/05/11 13:06:15;;;;;;;9.07;8.03;;;14.70;83.20;;;;;;5081956;28;20031;-48